Terminal Aerodrome Forecast
Issued by NWS

Home | Current Version | Previous Version | Text Only | Print | Product List | Glossary On
Versions: 1 2 3 4 5 6 7 8 9 10 11 12 13 14 15
000
FTUS41 KCAR 050539
TAFFVE
TAF
KFVE 050539Z 0506/0606 21004KT P6SM FEW250
      TEMPO 0509/0511 2SM BR SCT002
     FM051300 24005KT P6SM BKN045
     FM051600 24007KT 6SM -SHRA BKN040
     FM052100 25007KT P6SM BKN060=

USA.gov is the U.S. government's official web portal to all federal, state and local government web resources and services.